This is the latest recevied weather packets stored in our database for station/object VU3ZAG-WX. If no packets are shown the sender has not sent any weather packets the latest 10 day(s).
| Time | Temp. | Humidity | Pressure | Rain* | Wind** | Luminosity | Snow |
|---|---|---|---|---|---|---|---|
| 1777913755 | 30° C | 70% | 1010.9 hPa | - | - | - | - |
| 1777913150 | 30° C | 71% | 1010.8 hPa | - | - | - | - |
| 1777912544 | 30° C | 70% | 1010.7 hPa | - | - | - | - |
| 1777911938 | 30.56° C | 70% | 1010.6 hPa | - | - | - | - |
| 1777911333 | 30.56° C | 63% | 1010.5 hPa | - | - | - | - |
| 1777910726 | 30° C | 67% | 1010.3 hPa | - | - | - | - |
| 1777910120 | 29.44° C | 71% | 1010.2 hPa | - | - | - | - |
| 1777909515 | 29.44° C | 70% | 1010.1 hPa | - | - | - | - |
| 1777908910 | 29.44° C | 70% | 1010 hPa | - | - | - | - |
| 1777908304 | 29.44° C | 67% | 1009.9 hPa | - | - | - | - |
| 1777907698 | 28.89° C | 68% | 1009.9 hPa | - | - | - | - |
| 1777907092 | 28.89° C | 74% | 1009.9 hPa | - | - | - | - |
| 1777906486 | 28.89° C | 71% | 1009.9 hPa | - | - | - | - |
| 1777905881 | 29.44° C | 71% | 1009.8 hPa | - | - | - | - |
| 1777905274 | 29.44° C | 68% | 1009.7 hPa | - | - | - | - |
| 1777904669 | 28.89° C | 72% | 1009.6 hPa | - | - | - | - |
| 1777904063 | 28.89° C | 72% | 1009.5 hPa | - | - | - | - |
| 1777903456 | 28.89° C | 77% | 1009.3 hPa | - | - | - | - |
| 1777902850 | 29.44° C | 75% | 1009 hPa | - | - | - | - |
| 1777902245 | 30° C | 72% | 1008.7 hPa | - | - | - | - |
| 1777901640 | 30.56° C | 67% | 1008.5 hPa | - | - | - | - |
| 1777901034 | 30.56° C | 74% | 1008.3 hPa | - | - | - | - |
| 1777900429 | 31.11° C | 72% | 1008 hPa | - | - | - | - |
| 1777899823 | 32.22° C | 72% | 1007.7 hPa | - | - | - | - |
| 1777899218 | 32.78° C | 67% | 1007.4 hPa | - | - | - | - |
* Rain since midnight (hover to see other rain measurements)
** Current wind speed in m/s (hover to see current wind gust speed)